- Siena (Round Rock, TX) - Nearby METAR Reports

Nearby METAR Reports

 

KEDC - Austin Exec, Texas, USA
Distance from station: SSE 10mi, 17km
Updated: Wed, 25-May-2022 2:15pm CDT
Clear
Clear
 Wind from N
Wind: N 14 mph , 22 km/h, Gust: 21 mph , 33 km/h
Temperature: 77°F , 25°C
Dew Point: 50°F , 10°C
Humidity: 39%
Barometer: 29.89 inHg , 1012.2 hPa
Clouds: Clear
Visibility: 8 miles , 13 km
2022/05/25 19:15 KEDC 251915Z AUTO 36012G18KT 8SM CLR 25/10 A2989 RMK AO2
KGTU - Georgetown, Texas, USA
Distance from station: NNW 11mi, 17km
Updated: Wed, 25-May-2022 1:56pm CDT
Clear
Clear
 Wind from WNW
Wind: WNW 15 mph , 24 km/h, Gust: 24 mph , 39 km/h
Temperature: 77°F , 25°C
Dew Point: 48°F , 9°C
Humidity: 36%
Barometer: 29.91 inHg , 1012.9 hPa
Clouds: Clear
Visibility: 10 miles , 16 km
2022/05/25 18:56 KGTU 251856Z 30013G21KT 10SM CLR 25/09 A2991 RMK AO2 SLP127 T02500094
 
KATT - Austin/Mabry, Texas, USA
Distance from station: SSW 18mi, 30km
Updated: Wed, 25-May-2022 1:51pm CDT
Clear
Clear
 Wind from varies
Wind: varies 6 mph , 9 km/h
Temperature: 79°F , 26°C
Dew Point: 50°F , 10°C
Humidity: 37%
Barometer: 29.90 inHg , 1012.5 hPa
Clouds: Clear
Visibility: 10 miles , 16 km
2022/05/25 18:51 KATT 251851Z AUTO VRB05KT 10SM CLR 26/10 A2990 RMK AO2 SLP115 T02610100
KRYW - Lago Vista, Texas, USA
Distance from station: W 22mi, 35km
Updated: Wed, 25-May-2022 1:55pm CDT
Clear
Clear
 Wind from NW
Wind: NW 12 mph , 19 km/h, Gust: 22 mph , 35 km/h
Temperature: 77°F , 25°C
Dew Point: 50°F , 10°C
Humidity: 39%
Barometer: 29.92 inHg , 1013.2 hPa
Clouds: Clear
Visibility: 10 miles , 16 km
2022/05/25 18:55 KRYW 251855Z AUTO 32010G19KT 10SM CLR 25/10 A2992 RMK AO2 T02450100
 
KAUS - Austin, Texas, USA
Distance from station: S 25mi, 41km
Updated: Wed, 25-May-2022 1:53pm CDT
Few Clouds
Few Clouds
 Wind from NW
Wind: NW 12 mph , 19 km/h, Gust: 23 mph , 37 km/h
Temperature: 79°F , 26°C
Dew Point: 52°F , 11°C
Humidity: 39%
Barometer: 29.89 inHg , 1012.2 hPa
Clouds: Few Clouds
Visibility: 10 miles , 16 km
Cloud details: Few Clouds 10000 ft
2022/05/25 18:53 KAUS 251853Z 32010G20KT 10SM FEW100 26/11 A2989 RMK AO2 PK WND 33027/1819 SLP114 T02560111
KILE - Killeen Muni, Texas, USA
Distance from station: N 36mi, 58km
Updated: Wed, 25-May-2022 1:56pm CDT
Clear
Clear
 Wind from WNW
Wind: WNW 13 mph , 20 km/h, Gust: 23 mph , 37 km/h
Temperature: 73°F , 23°C
Dew Point: 50°F , 10°C
Humidity: 44%
Barometer: 29.91 inHg , 1012.9 hPa
Clouds: Clear
Visibility: 10 miles , 16 km
2022/05/25 18:56 KILE 251856Z AUTO 30011G20KT 10SM CLR 23/10 A2991 RMK AO2 SLP119 T02330100
 
KGRK - Gray/Ft Hood, Texas, USA
Distance from station: NNW 38mi, 62km
Updated: Wed, 25-May-2022 2:01pm CDT
Few Clouds
Few Clouds
 Wind from NW
Wind: NW 16 mph , 26 km/h
Temperature: 73°F , 23°C
Dew Point: 48°F , 9°C
Humidity: 41%
Barometer: 29.88 inHg , 1011.9 hPa
Clouds: Few Clouds
Visibility: 10 miles , 16 km
Cloud details: Few Clouds 25000 ft
Few Clouds 35000 ft
2022/05/25 19:01 KGRK 251901Z AUTO 32014KT 10SM FEW250 FEW350 23/09 A2988 RMK AO2 WSHFT 1854 SLP112
KBMQ - Burnet, Texas, USA
Distance from station: WNW 39mi, 64km
Updated: Wed, 25-May-2022 1:53pm CDT
Clear
Clear
 Wind from NW
Wind: NW 9 mph , 15 km/h, Gust: 28 mph , 44 km/h
Temperature: 75°F , 24°C
Dew Point: 50°F , 10°C
Humidity: 41%
Barometer: 29.94 inHg , 1013.9 hPa
Clouds: Clear
Visibility: 10 miles , 16 km
2022/05/25 18:53 KBMQ 251853Z AUTO 31008G24KT 10SM CLR 24/10 A2994 RMK AO2 PK WND 33027/1759 SLP126 T02390100 $
 
KHLR - Ft Hood/Killeen, Texas, USA
Distance from station: N 41mi, 66km
Updated: Wed, 25-May-2022 1:58pm CDT
Partly cloudy
Partly cloudy
 Wind from NNW
Wind: NNW 18 mph , 30 km/h, Gust: 24 mph , 39 km/h
Temperature: 73°F , 23°C
Dew Point: 50°F , 10°C
Humidity: 44%
Barometer: 29.90 inHg , 1012.5 hPa
Clouds: Partly cloudy
Visibility: 10 miles , 16 km
Cloud details: Few Clouds 28000 ft
Partly cloudy 33000 ft
2022/05/25 18:58 KHLR 251858Z AUTO 33016G21KT 10SM FEW280 SCT330 23/10 A2990 RMK AO2 SLP118 T02310103
KTPL - Temple/Miller, Texas, USA
Distance from station: NNE 42mi, 68km
Updated: Wed, 25-May-2022 1:51pm CDT
Clear
Clear
 Wind from NW
Wind: NW 15 mph , 24 km/h, Gust: 26 mph , 43 km/h
Temperature: 75°F , 24°C
Dew Point: 52°F , 11°C
Humidity: 44%
Barometer: 29.90 inHg , 1012.5 hPa
Clouds: Clear
Visibility: 10 miles , 16 km
2022/05/25 18:51 KTPL 251851Z 32013G23KT 10SM CLR 24/11 A2990 RMK AO2 SLP116 T02390111
 
KT35 - Cameron, Texas, USA
Distance from station: ENE 45mi, 72km
Updated: Wed, 25-May-2022 2:15pm CDT
Clear
Clear
 Wind from WNW
Wind: WNW 17 mph , 28 km/h, Gust: 22 mph , 35 km/h
Temperature: 77°F , 25°C
Dew Point: 54°F , 12°C
Humidity: 44%
Barometer: 29.89 inHg , 1012.2 hPa
Clouds: Clear
Visibility: 10 miles , 16 km
2022/05/25 19:15 KT35 251915Z AUTO 30015G19KT 10SM CLR 25/12 A2989 RMK AO2 T02470118
KDZB - Horseshoe Bay, Texas, USA
Distance from station: W 45mi, 73km
Updated: Wed, 25-May-2022 2:15pm CDT
Clear
Clear
 Wind from NNW
Wind: NNW 17 mph , 28 km/h, Gust: 23 mph , 37 km/h
Temperature: 77°F , 25°C
Dew Point: 46°F , 8°C
Humidity: 34%
Barometer: 29.93 inHg , 1013.5 hPa
Clouds: Clear
Visibility: 10 miles , 16 km
2022/05/25 19:15 KDZB 251915Z AUTO 33015G20KT 10SM CLR 25/08 A2993 RMK AO2 T02500081
 
KGYB - Giddings-Lee, Texas, USA
Distance from station: SE 45mi, 73km
Updated: Wed, 25-May-2022 2:15pm CDT
Clear
Clear
 Wind from NNW
Wind: NNW 12 mph , 19 km/h, Gust: 17 mph , 28 km/h
Temperature: 77°F , 25°C
Dew Point: 55°F , 13°C
Humidity: 47%
Barometer: 29.90 inHg , 1012.5 hPa
Clouds: Clear
Visibility: 10 miles , 16 km
2022/05/25 19:15 KGYB 251915Z AUTO 33010G15KT 10SM CLR 25/13 A2990 RMK AO2 T02460129
KHYI - San Marcos, Texas, USA
Distance from station: SSW 48mi, 78km
Updated: Wed, 25-May-2022 1:56pm CDT
Clear
Clear
 Wind from NW
Wind: NW 14 mph , 22 km/h, Gust: 22 mph , 35 km/h
Temperature: 81°F , 27°C
Heat Index: 81°F , 27°C
Dew Point: 55°F , 13°C
Humidity: 42%
Barometer: 29.90 inHg , 1012.5 hPa
Clouds: Clear
Visibility: 10 miles , 16 km
2022/05/25 18:56 KHYI 251856Z 32012G19KT 10SM CLR 27/13 A2990 RMK AO2 SLP118 T02670133
 
KLZZ - Lampasas, Texas, USA
Distance from station: NW 52mi, 84km
Updated: Wed, 25-May-2022 2:15pm CDT
Clear
Clear
 Wind from NW
Wind: NW 13 mph , 20 km/h, Gust: 20 mph , 31 km/h
Temperature: 73°F , 23°C
Dew Point: 48°F , 9°C
Humidity: 41%
Barometer: 29.89 inHg , 1012.2 hPa
Clouds: Clear
Visibility: 10 miles , 16 km
2022/05/25 19:15 KLZZ 251915Z AUTO 31011G17KT 10SM CLR 23/09 A2989 RMK AO2 T02280089
KRWV - Caldwell, Texas, USA
Distance from station: E 54mi, 87km
Updated: Wed, 25-May-2022 2:15pm CDT
Clear
Clear
 Wind from WNW
Wind: WNW 10 mph , 17 km/h
Temperature: 77°F , 25°C
Dew Point: 55°F , 13°C
Humidity: 47%
Barometer: 29.89 inHg , 1012.2 hPa
Clouds: Clear
Visibility: 10 miles , 16 km
2022/05/25 19:15 KRWV 251915Z AUTO 30009KT 10SM CLR 25/13 A2989 RMK AO2 T02490130
 
K3T5 - La Grange, Texas, USA
Distance from station: SE 59mi, 95km
Updated: Wed, 25-May-2022 2:15pm CDT
Clear
Clear
 Wind from NNW
Wind: NNW 12 mph , 19 km/h, Gust: 20 mph , 31 km/h
Temperature: 81°F , 27°C
Heat Index: 81°F , 27°C
Dew Point: 59°F , 15°C
Humidity: 48%
Barometer: 29.86 inHg , 1011.2 hPa
Clouds: Clear
Visibility: 10 miles , 16 km
2022/05/25 19:15 K3T5 251915Z AUTO 33010G17KT 10SM CLR 27/15 A2986 RMK AO2 T02700147
KGOP - Gatesville, Texas, USA
Distance from station: N 61mi, 99km
Updated: Wed, 25-May-2022 2:15pm CDT
Clear
Clear
 Wind from WNW
Wind: WNW 13 mph , 20 km/h, Gust: 21 mph , 33 km/h
Temperature: 73°F , 23°C
Dew Point: 50°F , 10°C
Humidity: 44%
Barometer: 29.92 inHg , 1013.2 hPa
Clouds: Clear
Visibility: 10 miles , 16 km
2022/05/25 19:15 KGOP 251915Z AUTO 30011G18KT 280V340 10SM CLR 23/10 A2992 RMK AO2
 
KLHB - Hearne Muni, Texas, USA
Distance from station: ENE 63mi, 101km
Updated: Wed, 25-May-2022 2:15pm CDT
Clear
Clear
 Wind from NW
Wind: NW 13 mph , 20 km/h, Gust: 18 mph , 30 km/h
Temperature: 77°F , 25°C
Dew Point: 55°F , 13°C
Humidity: 47%
Barometer: 29.90 inHg , 1012.5 hPa
Clouds: Clear
Visibility: 10 miles , 16 km
2022/05/25 19:15 KLHB 251915Z AUTO 31011G16KT 10SM CLR 25/13 A2990 RMK AO2 T02500133
KBAZ - New Braunfels, Texas, USA
Distance from station: SSW 63mi, 102km
Updated: Wed, 25-May-2022 1:51pm CDT
Clear
Clear
 Wind from NNW
Wind: NNW 15 mph , 24 km/h
Temperature: 82°F , 28°C
Dew Point: 54°F , 12°C
Humidity: 37%
Barometer: 29.88 inHg , 1011.9 hPa
Clouds: Clear
Visibility: 10 miles , 16 km
2022/05/25 18:51 KBAZ 251851Z 33013KT 10SM CLR 28/12 A2988 RMK AO2 SLP111 T02780117